createdAt,value
2023-04-23T00:01:26.101Z,1
2023-04-23T00:03:26.392Z,1
2023-04-23T00:05:26.153Z,1
2023-04-23T00:07:26.473Z,1
2023-04-23T00:09:26.467Z,1
2023-04-23T00:11:26.474Z,1
2023-04-23T00:13:26.347Z,1
2023-04-23T00:15:26.581Z,1
2023-04-23T00:17:26.511Z,1
2023-04-23T00:19:26.487Z,1
2023-04-23T00:21:26.382Z,1
2023-04-23T00:23:26.551Z,1
2023-04-23T00:25:26.434Z,1
2023-04-23T00:27:26.443Z,1
2023-04-23T00:29:26.816Z,1
2023-04-23T00:31:26.536Z,1
2023-04-23T00:33:26.606Z,1
2023-04-23T00:35:27.441Z,1
2023-04-23T00:37:26.609Z,1
2023-04-23T00:39:27.544Z,1
2023-04-23T00:41:26.714Z,1
2023-04-23T00:43:26.699Z,1
2023-04-23T00:45:26.748Z,1
2023-04-23T00:47:26.928Z,1
2023-04-23T00:49:27.040Z,1
2023-04-23T00:51:26.876Z,1
2023-04-23T00:53:26.827Z,1
2023-04-23T00:55:26.930Z,1
2023-04-23T00:57:26.962Z,1
2023-04-23T00:59:26.992Z,1
2023-04-23T01:01:27.072Z,1
2023-04-23T01:03:27.413Z,1
2023-04-23T01:05:27.757Z,1
2023-04-23T01:07:27.861Z,1
2023-04-23T01:09:27.167Z,1
2023-04-23T01:11:27.862Z,1
2023-04-23T01:13:27.223Z,1
2023-04-23T01:15:28.133Z,1
2023-04-23T01:17:27.329Z,1
2023-04-23T01:19:28.149Z,1
2023-04-23T01:21:27.308Z,1
2023-04-23T01:23:27.563Z,1
2023-04-23T01:25:27.366Z,1
2023-04-23T01:27:27.412Z,1
2023-04-23T01:29:27.428Z,1
2023-04-23T01:31:27.632Z,1
2023-04-23T01:33:28.389Z,1
2023-04-23T01:35:28.209Z,1
2023-04-23T01:37:27.697Z,1
2023-04-23T01:39:28.403Z,1
2023-04-23T01:41:27.806Z,1
2023-04-23T01:43:27.858Z,1
2023-04-23T01:45:28.447Z,1
2023-04-23T01:47:27.801Z,1
2023-04-23T01:49:28.123Z,1
2023-04-23T01:51:27.811Z,1
2023-04-23T01:53:27.897Z,1
2023-04-23T01:55:28.605Z,1
2023-04-23T01:57:28.040Z,1
2023-04-23T01:59:28.034Z,1
2023-04-23T02:01:28.101Z,1
2023-04-23T02:03:28.184Z,1
2023-04-23T02:05:28.374Z,1
2023-04-23T02:07:28.805Z,1
2023-04-23T02:09:28.171Z,1
2023-04-23T02:11:28.222Z,1
2023-04-23T02:13:28.365Z,1
2023-04-23T02:15:28.228Z,1
2023-04-23T02:17:28.333Z,1
2023-04-23T02:19:28.580Z,1
2023-04-23T02:21:28.370Z,1
2023-04-23T02:23:28.401Z,1
2023-04-23T02:25:29.028Z,1
2023-04-23T02:27:28.512Z,1
2023-04-23T02:29:29.006Z,1
2023-04-23T02:31:28.595Z,1
2023-04-23T02:33:28.618Z,1
2023-04-23T02:35:28.728Z,1
2023-04-23T02:37:28.657Z,1
2023-04-23T02:39:29.542Z,1
2023-04-23T02:41:28.843Z,1
2023-04-23T02:43:28.813Z,1
2023-04-23T02:45:28.811Z,1
2023-04-23T02:47:29.716Z,1
2023-04-23T02:49:28.926Z,1
2023-04-23T02:51:29.180Z,1
2023-04-23T02:53:28.997Z,1
2023-04-23T02:55:29.264Z,1
2023-04-23T02:57:29.823Z,1
2023-04-23T02:59:29.819Z,1
2023-04-23T03:01:29.248Z,1
2023-04-23T03:03:29.427Z,1
2023-04-23T03:05:29.234Z,1
2023-04-23T03:07:29.265Z,1
2023-04-23T03:09:29.951Z,1
2023-04-23T03:11:30.088Z,1
2023-04-23T03:13:29.826Z,1
2023-04-23T03:15:29.965Z,1
2023-04-23T03:17:29.928Z,1
2023-04-23T03:19:30.057Z,1
2023-04-23T03:21:30.272Z,1
2023-04-23T03:23:29.897Z,1
2023-04-23T03:25:30.102Z,1
2023-04-23T03:27:29.626Z,1
2023-04-23T03:29:29.799Z,1
2023-04-23T03:31:29.978Z,1
2023-04-23T03:33:29.986Z,0
2023-04-23T03:35:29.881Z,0
2023-04-23T03:37:29.894Z,0
2023-04-23T03:39:29.984Z,0.1
2023-04-23T03:41:30.761Z,0.1
2023-04-23T03:43:30.094Z,0.2
2023-04-23T03:45:30.004Z,0.2
2023-04-23T03:47:30.076Z,0.3
2023-04-23T03:49:30.151Z,0.4
2023-04-23T03:51:30.156Z,0.7
2023-04-23T03:53:30.506Z,0.9
2023-04-23T03:55:30.350Z,1.2
2023-04-23T03:57:30.424Z,1.5
2023-04-23T03:59:32.925Z,1.9
2023-04-23T04:01:31.981Z,2.5
2023-04-23T04:03:32.143Z,3.3
2023-04-23T04:05:31.775Z,4.5
2023-04-23T04:07:31.901Z,5.8
2023-04-23T04:09:31.729Z,7
2023-04-23T04:11:32.174Z,9.5
2023-04-23T04:13:31.956Z,12.8
2023-04-23T04:15:32.137Z,16.4
2023-04-23T04:17:32.332Z,19.1
2023-04-23T04:19:32.092Z,22.2
2023-04-23T04:21:32.235Z,25.8
2023-04-23T04:23:32.995Z,31.5
2023-04-23T04:25:32.190Z,36.6
2023-04-23T04:27:32.190Z,42.5
2023-04-23T04:29:32.563Z,51.9
2023-04-23T04:31:32.844Z,66.7
2023-04-23T04:33:32.714Z,94.6
2023-04-23T04:35:32.823Z,115.6
2023-04-23T04:37:32.527Z,141.2
2023-04-23T04:39:32.533Z,164
2023-04-23T04:41:32.702Z,190.6
2023-04-23T04:43:32.595Z,210.6
2023-04-23T04:45:32.600Z,221.4
2023-04-23T04:47:33.116Z,221.4
2023-04-23T04:49:32.904Z,210.6
2023-04-23T04:51:32.587Z,221.4
2023-04-23T04:53:32.734Z,232.8
2023-04-23T04:55:32.839Z,232.8
2023-04-23T04:57:33.029Z,232.8
2023-04-23T04:59:33.363Z,221.4
2023-04-23T05:01:33.476Z,232.8
2023-04-23T05:03:33.077Z,232.8
2023-04-23T05:05:33.139Z,232.8
2023-04-23T05:07:33.117Z,221.4
2023-04-23T05:09:33.018Z,190.6
2023-04-23T05:11:33.312Z,172.4
2023-04-23T05:13:33.475Z,181.3
2023-04-23T05:15:33.246Z,200.3
2023-04-23T05:17:33.374Z,232.8
2023-04-23T05:19:33.402Z,284.3
2023-04-23T05:21:33.344Z,365
2023-04-23T05:23:33.488Z,424.1
2023-04-23T05:25:34.197Z,468.7
2023-04-23T05:27:33.543Z,492.7
2023-04-23T05:29:33.571Z,544.6
2023-04-23T05:31:33.648Z,601.8
2023-04-23T05:33:42.793Z,601.8
2023-04-23T05:35:34.248Z,601.8
2023-04-23T05:37:33.749Z,601.8
2023-04-23T05:39:34.181Z,572.5
2023-04-23T05:41:34.008Z,544.6
2023-04-23T05:43:34.018Z,518
2023-04-23T05:45:33.924Z,468.7
2023-04-23T05:47:33.877Z,424.1
2023-04-23T05:49:34.409Z,403.4
2023-04-23T05:51:34.211Z,383.8
2023-04-23T05:53:34.342Z,383.8
2023-04-23T05:55:34.151Z,403.4
2023-04-23T05:57:34.580Z,445.9
2023-04-23T05:59:34.416Z,492.7
2023-04-23T06:01:34.481Z,518
2023-04-23T06:03:34.897Z,518
2023-04-23T06:05:35.009Z,544.6
2023-04-23T06:07:34.675Z,572.5
2023-04-23T06:09:34.592Z,632.7
2023-04-23T06:11:34.539Z,699.2
2023-04-23T06:13:34.761Z,735.1
2023-04-23T06:15:34.661Z,735.1
2023-04-23T06:17:35.093Z,772.8
2023-04-23T06:19:34.948Z,897.8
2023-04-23T06:21:34.842Z,1096.6
2023-04-23T06:23:35.260Z,1096.6
2023-04-23T06:25:35.280Z,1043.1
2023-04-23T06:27:35.759Z,1043.1
2023-04-23T06:29:35.269Z,1096.6
2023-04-23T06:31:35.372Z,1274.1
2023-04-23T06:33:35.292Z,1556.2
2023-04-23T06:35:35.391Z,1900.7
2023-04-23T06:37:35.438Z,2208.3
2023-04-23T06:39:35.684Z,2440.6
2023-04-23T06:41:35.542Z,2565.7
2023-04-23T06:43:35.622Z,2440.6
2023-04-23T06:45:35.699Z,2208.3
2023-04-23T06:47:35.772Z,2208.3
2023-04-23T06:49:36.366Z,2100.6
2023-04-23T06:51:36.164Z,1900.7
2023-04-23T06:53:35.872Z,1900.7
2023-04-23T06:55:36.261Z,1719.9
2023-04-23T06:57:36.109Z,1636
2023-04-23T06:59:35.968Z,1719.9
2023-04-23T07:01:36.328Z,1808
2023-04-23T07:03:36.146Z,1998.2
2023-04-23T07:05:36.449Z,1998.2
2023-04-23T07:07:36.684Z,1900.7
2023-04-23T07:09:36.389Z,1900.7
2023-04-23T07:11:36.175Z,1998.2
2023-04-23T07:13:36.698Z,1998.2
2023-04-23T07:15:36.294Z,2100.6
2023-04-23T07:17:36.410Z,1998.2
2023-04-23T07:19:36.489Z,1998.2
2023-04-23T07:21:36.470Z,1998.2
2023-04-23T07:23:36.559Z,1998.2
2023-04-23T07:25:36.681Z,2100.6
2023-04-23T07:27:37.178Z,2208.3
2023-04-23T07:29:37.172Z,2440.6
2023-04-23T07:31:37.302Z,2835.6
2023-04-23T07:33:36.834Z,3294.5
2023-04-23T07:35:37.335Z,3827.6
2023-04-23T07:37:37.260Z,4023.9
2023-04-23T07:39:37.032Z,4230.2
2023-04-23T07:41:36.986Z,4447.1
2023-04-23T07:43:37.138Z,4447.1
2023-04-23T07:45:37.199Z,4230.2
2023-04-23T07:47:37.283Z,4023.9
2023-04-23T07:49:37.325Z,4023.9
2023-04-23T07:51:37.305Z,4230.2
2023-04-23T07:53:37.561Z,4914.8
2023-04-23T07:55:37.421Z,5431.7
2023-04-23T07:57:37.545Z,5710.1
2023-04-23T07:59:37.491Z,6002.9
2023-04-23T08:01:37.549Z,6002.9
2023-04-23T08:03:37.764Z,5710.1
2023-04-23T08:05:37.751Z,4914.8
2023-04-23T08:07:37.964Z,4023.9
2023-04-23T08:09:37.945Z,3463.4
2023-04-23T08:11:37.834Z,2981
2023-04-23T08:13:37.930Z,2835.6
2023-04-23T08:15:37.969Z,2835.6
2023-04-23T08:17:38.024Z,3133.8
2023-04-23T08:19:38.299Z,3294.5
2023-04-23T08:21:38.229Z,3463.4
2023-04-23T08:23:38.177Z,3463.4
2023-04-23T08:25:38.260Z,3463.4
2023-04-23T08:27:38.508Z,3463.4
2023-04-23T08:29:38.420Z,4023.9
2023-04-23T08:31:38.659Z,4914.8
2023-04-23T08:33:38.598Z,5710.1
2023-04-23T08:35:38.562Z,6310.7
2023-04-23T08:37:38.479Z,6634.2
2023-04-23T08:39:39.587Z,6634.2
2023-04-23T08:41:38.596Z,6974.4
2023-04-23T08:43:38.921Z,8103.1
2023-04-23T08:45:39.138Z,9897.1
2023-04-23T08:47:38.815Z,10938
2023-04-23T08:49:39.394Z,12088.4
2023-04-23T08:51:39.114Z,12708.2
2023-04-23T08:53:39.943Z,12088.4
2023-04-23T08:55:39.070Z,13359.7
2023-04-23T08:57:39.610Z,10938
2023-04-23T08:59:39.420Z,10938
2023-04-23T09:01:39.269Z,10404.6
2023-04-23T09:03:39.386Z,10404.6
2023-04-23T09:05:39.412Z,9414.4
2023-04-23T09:07:39.624Z,8955.3
2023-04-23T09:09:39.772Z,8955.3
2023-04-23T09:11:39.563Z,8955.3
2023-04-23T09:13:39.620Z,8103.1
2023-04-23T09:15:39.931Z,7332
2023-04-23T09:17:40.683Z,6974.4
2023-04-23T09:19:40.214Z,7332
2023-04-23T09:21:39.806Z,7707.9
2023-04-23T09:23:39.862Z,8518.5
2023-04-23T09:25:39.976Z,9414.4
2023-04-23T09:27:40.025Z,8518.5
2023-04-23T09:29:40.227Z,9897.1
2023-04-23T09:31:40.118Z,10404.6
2023-04-23T09:33:40.226Z,9897.1
2023-04-23T09:35:40.908Z,9414.4
2023-04-23T09:37:40.392Z,8955.3
2023-04-23T09:39:40.527Z,8103.1
2023-04-23T09:41:40.679Z,6634.2
2023-04-23T09:43:40.569Z,6634.2
2023-04-23T09:45:40.571Z,6634.2
2023-04-23T09:47:40.605Z,6310.7
2023-04-23T09:49:41.104Z,6002.9
2023-04-23T09:51:41.391Z,6002.9
2023-04-23T09:53:41.432Z,5710.1
2023-04-23T09:55:52.299Z,6634.2
2023-04-23T09:57:52.406Z,7707.9
2023-04-23T10:01:52.301Z,6310.7
2023-04-23T10:03:52.293Z,5431.7
2023-04-23T10:06:00.899Z,5710.1
2023-04-23T10:07:52.222Z,6310.7
2023-04-23T10:09:52.276Z,7332
2023-04-23T10:11:52.538Z,9414.4
2023-04-23T10:13:52.294Z,11498.8
2023-04-23T10:15:52.294Z,13359.7
2023-04-23T10:17:52.508Z,14044.7
2023-04-23T10:19:52.232Z,16317.6
2023-04-23T10:21:56.314Z,14764.8
2023-04-23T10:23:52.229Z,12708.2
2023-04-23T10:25:52.174Z,14764.8
2023-04-23T10:27:54.163Z,10404.6
2023-04-23T10:29:52.272Z,8103.1
2023-04-23T10:31:53.615Z,6974.4
2023-04-23T10:33:58.715Z,6634.2
2023-04-23T10:35:52.210Z,6634.2
2023-04-23T10:37:52.280Z,6974.4
2023-04-23T10:39:52.356Z,7332
2023-04-23T10:41:52.033Z,8103.1
2023-04-23T10:43:52.281Z,8955.3
2023-04-23T10:45:52.267Z,12088.4
2023-04-23T10:47:52.317Z,14044.7
2023-04-23T10:49:52.278Z,17154.2
2023-04-23T10:53:52.270Z,15521.8
2023-04-23T10:55:52.252Z,14044.7
2023-04-23T10:57:52.185Z,13359.7
2023-04-23T10:59:52.225Z,12708.2
2023-04-23T11:01:52.196Z,9414.4
2023-04-23T11:03:52.375Z,7707.9
2023-04-23T11:05:52.297Z,8103.1
2023-04-23T11:07:52.313Z,10404.6
2023-04-23T11:09:52.341Z,10938
2023-04-23T11:11:52.320Z,10938
2023-04-23T11:13:52.294Z,11498.8
2023-04-23T11:15:52.216Z,14044.7
2023-04-23T11:17:52.265Z,17154.2
2023-04-23T11:19:52.352Z,18033.7
2023-04-23T11:21:52.227Z,15521.8
2023-04-23T11:23:52.394Z,14764.8
2023-04-23T11:25:52.281Z,13359.7
2023-04-23T11:27:52.256Z,10404.6
2023-04-23T11:29:52.043Z,9414.4
2023-04-23T11:32:01.259Z,11498.8
2023-04-23T11:33:52.248Z,12708.2
2023-04-23T11:35:52.232Z,10938
2023-04-23T11:37:52.305Z,12088.4
2023-04-23T11:39:52.318Z,13359.7
2023-04-23T11:41:52.548Z,13359.7
2023-04-23T11:43:52.287Z,12708.2
2023-04-23T11:45:52.320Z,11498.8
2023-04-23T11:47:52.294Z,12088.4
2023-04-23T11:49:52.257Z,12088.4
2023-04-23T11:51:52.313Z,13359.7
2023-04-23T11:53:52.235Z,14044.7
2023-04-23T11:55:52.298Z,12708.2
2023-04-23T11:57:52.671Z,11498.8
2023-04-23T11:59:52.254Z,10404.6
2023-04-23T12:01:52.272Z,9897.1
2023-04-23T12:03:52.408Z,9414.4
2023-04-23T12:05:52.312Z,9414.4
2023-04-23T12:07:52.333Z,9414.4
2023-04-23T12:09:52.276Z,7332
2023-04-23T12:11:52.253Z,7332
2023-04-23T12:13:52.348Z,6974.4
2023-04-23T12:15:52.081Z,8103.1
2023-04-23T12:17:52.311Z,9897.1
2023-04-23T12:19:52.289Z,10404.6
2023-04-23T12:21:52.170Z,12088.4
2023-04-23T12:23:52.258Z,13359.7
2023-04-23T12:25:52.083Z,12708.2
2023-04-23T12:27:52.294Z,10938
2023-04-23T12:29:52.248Z,13359.7
2023-04-23T12:31:52.310Z,13359.7
2023-04-23T12:33:52.271Z,11498.8
2023-04-23T12:35:52.546Z,12708.2
2023-04-23T12:37:52.275Z,10938
2023-04-23T12:39:52.261Z,12088.4
2023-04-23T12:41:52.270Z,11498.8
2023-04-23T12:43:52.329Z,9414.4
2023-04-23T12:45:52.086Z,9897.1
2023-04-23T12:47:52.339Z,10404.6
2023-04-23T12:49:52.300Z,10938
2023-04-23T12:51:52.274Z,7332
2023-04-23T12:53:52.251Z,8518.5
2023-04-23T12:55:52.296Z,9414.4
2023-04-23T12:57:51.933Z,8103.1
2023-04-23T12:59:52.348Z,8955.3
2023-04-23T13:01:52.355Z,9897.1
2023-04-23T13:03:52.409Z,8955.3
2023-04-23T13:05:52.322Z,8955.3
2023-04-23T13:07:52.544Z,10404.6
2023-04-23T13:09:52.290Z,8518.5
2023-04-23T13:11:52.346Z,12088.4
2023-04-23T13:13:52.248Z,9897.1
2023-04-23T13:15:52.300Z,9897.1
2023-04-23T13:17:52.384Z,10404.6
2023-04-23T13:19:52.248Z,8955.3
2023-04-23T13:21:52.076Z,7707.9
2023-04-23T13:23:52.308Z,8103.1
2023-04-23T13:25:52.365Z,7332
2023-04-23T13:27:52.306Z,6974.4
2023-04-23T13:29:52.370Z,7332
2023-04-23T13:31:52.199Z,6974.4
2023-04-23T13:33:52.392Z,7332
2023-04-23T13:35:52.259Z,8518.5
2023-04-23T13:37:52.225Z,11498.8
2023-04-23T13:39:52.279Z,9897.1
2023-04-23T13:42:02.710Z,9897.1
2023-04-23T13:43:52.326Z,12088.4
2023-04-23T13:45:52.319Z,8518.5
2023-04-23T13:47:52.452Z,9897.1
2023-04-23T13:49:52.367Z,9897.1
2023-04-23T13:51:52.481Z,11498.8
2023-04-23T13:53:52.439Z,10938
2023-04-23T13:55:52.311Z,10938
2023-04-23T13:57:52.367Z,10938
2023-04-23T13:59:52.311Z,8518.5
2023-04-23T14:01:52.066Z,10938
2023-04-23T14:03:52.319Z,11498.8
2023-04-23T14:05:52.315Z,8955.3
2023-04-23T14:07:52.282Z,6974.4
2023-04-23T14:09:52.362Z,6974.4
2023-04-23T14:11:52.512Z,7707.9
2023-04-23T14:13:52.292Z,10938
2023-04-23T14:15:52.370Z,11498.8
2023-04-23T14:17:52.422Z,8103.1
2023-04-23T14:19:52.287Z,8955.3
2023-04-23T14:21:52.321Z,9414.4
2023-04-23T14:23:52.365Z,9414.4
2023-04-23T14:25:52.389Z,8955.3
2023-04-23T14:27:52.334Z,8518.5
2023-04-23T14:29:52.386Z,8103.1
2023-04-23T14:31:52.076Z,8103.1
2023-04-23T14:33:52.381Z,6310.7
2023-04-23T14:35:52.298Z,6002.9
2023-04-23T14:37:52.258Z,7707.9
2023-04-23T14:39:52.315Z,4675.1
2023-04-23T14:41:52.484Z,4447.1
2023-04-23T14:43:52.316Z,4675.1
2023-04-23T14:45:52.357Z,4914.8
2023-04-23T14:47:52.309Z,8518.5
2023-04-23T14:49:52.397Z,8103.1
2023-04-23T14:51:52.468Z,7707.9
2023-04-23T14:53:53.246Z,8103.1
2023-04-23T14:55:52.344Z,8103.1
2023-04-23T14:57:52.414Z,8103.1
2023-04-23T14:59:52.294Z,7332
2023-04-23T15:01:53.721Z,6974.4
2023-04-23T15:03:52.444Z,6974.4
2023-04-23T15:05:52.292Z,5710.1
2023-04-23T15:07:52.312Z,6974.4
2023-04-23T15:09:52.314Z,4230.2
2023-04-23T15:11:52.524Z,4447.1
2023-04-23T15:13:52.422Z,6634.2
2023-04-23T15:15:52.336Z,5710.1
2023-04-23T15:17:52.318Z,6310.7
2023-04-23T15:19:52.309Z,6310.7
2023-04-23T15:21:52.294Z,4675.1
2023-04-23T15:23:53.715Z,4675.1
2023-04-23T15:25:52.427Z,6634.2
2023-04-23T15:27:52.346Z,6634.2
2023-04-23T15:29:52.452Z,6634.2
2023-04-23T15:31:52.392Z,5710.1
2023-04-23T15:33:52.082Z,4230.2
2023-04-23T15:35:52.357Z,4023.9
2023-04-23T15:37:52.407Z,4023.9
2023-04-23T15:39:52.429Z,3827.6
2023-04-23T15:42:07.762Z,4023.9
2023-04-23T15:43:52.348Z,5431.7
2023-04-23T15:45:52.455Z,5166.8
2023-04-23T15:47:53.785Z,5431.7
2023-04-23T15:49:52.405Z,4914.8
2023-04-23T15:51:52.426Z,4230.2
2023-04-23T15:53:56.689Z,4230.2
2023-04-23T15:55:52.540Z,4023.9
2023-04-23T15:57:52.398Z,3827.6
2023-04-23T15:59:53.751Z,4023.9
2023-04-23T16:01:52.439Z,3827.6
2023-04-23T16:04:08.426Z,3827.6
2023-04-23T16:05:54.070Z,3827.6
2023-04-23T16:07:52.407Z,4023.9
2023-04-23T16:09:52.383Z,4675.1
2023-04-23T16:11:56.120Z,4675.1
2023-04-23T16:13:52.523Z,4675.1
2023-04-23T16:15:52.366Z,4675.1
2023-04-23T16:17:57.063Z,4675.1
2023-04-23T16:19:52.385Z,4447.1
2023-04-23T16:21:52.447Z,4230.2
2023-04-23T16:23:54.171Z,4023.9
2023-04-23T16:25:52.372Z,3827.6
2023-04-23T16:27:52.432Z,3463.4
2023-04-23T16:29:53.698Z,3294.5
2023-04-23T16:31:52.472Z,3294.5
2023-04-23T16:33:52.120Z,3294.5
2023-04-23T16:35:53.748Z,3133.8
2023-04-23T16:37:52.349Z,2981
2023-04-23T16:39:52.312Z,2835.6
2023-04-23T16:41:53.360Z,2835.6
2023-04-23T16:43:52.505Z,2835.6
2023-04-23T16:45:52.435Z,2835.6
2023-04-23T16:47:53.488Z,2697.3
2023-04-23T16:49:52.468Z,2697.3
2023-04-23T16:51:54.061Z,2697.3
2023-04-23T16:53:55.796Z,2565.7
2023-04-23T16:55:52.379Z,2440.6
2023-04-23T16:57:52.454Z,2321.6
2023-04-23T16:59:56.000Z,2321.6
2023-04-23T17:01:52.505Z,2321.6
2023-04-23T17:03:52.314Z,2208.3
2023-04-23T17:05:53.735Z,2100.6
2023-04-23T17:07:52.446Z,1998.2
2023-04-23T17:09:52.379Z,1808
2023-04-23T17:11:53.482Z,1480.3
2023-04-23T17:13:52.559Z,1339.4
2023-04-23T17:15:52.442Z,1152.9
2023-04-23T17:17:56.164Z,992.3
2023-04-23T17:19:52.460Z,897.8
2023-04-23T17:21:52.482Z,699.2
2023-04-23T17:23:55.820Z,601.8
2023-04-23T17:25:52.358Z,544.6
2023-04-23T17:27:52.428Z,518
2023-04-23T17:29:57.791Z,468.7
2023-04-23T17:31:52.538Z,445.9
2023-04-23T17:33:52.651Z,403.4
2023-04-23T17:35:56.041Z,347.2
2023-04-23T17:37:52.510Z,298.9
2023-04-23T17:39:52.402Z,232.8
2023-04-23T17:41:53.407Z,172.4
2023-04-23T17:43:52.583Z,141.2
2023-04-23T17:45:52.433Z,104.6
2023-04-23T17:47:53.477Z,85.6
2023-04-23T17:49:52.375Z,73.7
2023-04-23T17:51:52.501Z,60.3
2023-04-23T17:53:53.313Z,47
2023-04-23T17:55:52.387Z,36.6
2023-04-23T17:57:52.341Z,28.5
2023-04-23T17:59:53.356Z,22.2
2023-04-23T18:01:52.450Z,18.2
2023-04-23T18:03:52.136Z,14.2
2023-04-23T18:05:53.379Z,11
2023-04-23T18:07:52.376Z,7.8
2023-04-23T18:09:52.403Z,6
2023-04-23T18:11:53.386Z,4.7
2023-04-23T18:13:52.089Z,3.7
2023-04-23T18:15:52.418Z,2.7
2023-04-23T18:17:53.513Z,2.1
2023-04-23T18:19:52.391Z,1.5
2023-04-23T18:21:52.431Z,1.2
2023-04-23T18:23:57.427Z,0.8
2023-04-23T18:25:52.589Z,0.6
2023-04-23T18:27:52.420Z,0.4
2023-04-23T18:29:53.322Z,0.3
2023-04-23T18:31:52.498Z,0.3
2023-04-23T18:33:52.303Z,0.2
2023-04-23T18:35:53.681Z,0.2
2023-04-23T18:37:52.478Z,0.1
2023-04-23T18:39:52.531Z,0.1
2023-04-23T18:41:53.881Z,0
2023-04-23T18:43:52.594Z,0
2023-04-23T18:45:52.443Z,0
2023-04-23T18:47:55.115Z,0
2023-04-23T18:49:52.437Z,0
2023-04-23T18:51:52.491Z,0
2023-04-23T18:53:53.755Z,1
2023-04-23T18:55:52.466Z,1
2023-04-23T18:57:52.464Z,1
2023-04-23T18:59:53.400Z,1
2023-04-23T19:01:52.523Z,1
2023-04-23T19:03:52.191Z,1
2023-04-23T19:05:56.968Z,1
2023-04-23T19:07:52.449Z,1
2023-04-23T19:09:52.335Z,1
2023-04-23T19:11:54.074Z,1
2023-04-23T19:13:52.577Z,1
2023-04-23T19:15:52.500Z,1
2023-04-23T19:17:53.724Z,1
2023-04-23T19:19:52.422Z,1
2023-04-23T19:21:52.490Z,1
2023-04-23T19:23:55.583Z,1
2023-04-23T19:25:52.439Z,1
2023-04-23T19:27:52.470Z,1
2023-04-23T19:29:55.116Z,1
2023-04-23T19:31:52.594Z,1
2023-04-23T19:33:52.108Z,1
2023-04-23T19:35:57.527Z,1
2023-04-23T19:37:52.487Z,1
2023-04-23T19:39:52.391Z,1
2023-04-23T19:41:54.889Z,1
2023-04-23T19:43:52.482Z,1
2023-04-23T19:45:52.167Z,1
2023-04-23T19:47:56.116Z,1
2023-04-23T19:49:52.402Z,1
2023-04-23T19:51:52.613Z,1
2023-04-23T19:53:55.234Z,1
2023-04-23T19:55:52.571Z,1
2023-04-23T19:57:52.443Z,1
2023-04-23T19:59:53.759Z,1
2023-04-23T20:01:52.470Z,1
2023-04-23T20:03:52.502Z,1
2023-04-23T20:05:57.611Z,1
2023-04-23T20:07:52.456Z,1
2023-04-23T20:09:52.474Z,1
2023-04-23T20:11:54.396Z,1
2023-04-23T20:13:52.469Z,1
2023-04-23T20:15:52.163Z,1
2023-04-23T20:17:53.387Z,1
2023-04-23T20:19:52.414Z,1
2023-04-23T20:21:52.532Z,1
2023-04-23T20:23:53.669Z,1
2023-04-23T20:25:52.435Z,1
2023-04-23T20:27:52.589Z,1
2023-04-23T20:29:55.469Z,1
2023-04-23T20:31:52.588Z,1
2023-04-23T20:33:52.418Z,1
2023-04-23T20:35:56.145Z,1
2023-04-23T20:37:52.545Z,1
2023-04-23T20:39:52.586Z,1
2023-04-23T20:41:53.886Z,1
2023-04-23T20:43:52.681Z,1
2023-04-23T20:45:52.505Z,1
2023-04-23T20:47:53.707Z,1
2023-04-23T20:49:52.467Z,1
2023-04-23T20:51:52.518Z,1
2023-04-23T20:53:54.553Z,1
2023-04-23T20:55:52.476Z,1
2023-04-23T20:57:52.484Z,1
2023-04-23T20:59:53.792Z,1
2023-04-23T21:01:52.550Z,1
2023-04-23T21:03:52.547Z,1
2023-04-23T21:05:54.293Z,1
2023-04-23T21:07:52.419Z,1
2023-04-23T21:09:52.467Z,1
2023-04-23T21:11:53.720Z,1
2023-04-23T21:13:52.484Z,1
2023-04-23T21:15:52.668Z,1
2023-04-23T21:17:53.373Z,1
2023-04-23T21:19:52.376Z,1
2023-04-23T21:21:52.569Z,1
2023-04-23T21:23:55.152Z,1
2023-04-23T21:25:52.126Z,1
2023-04-23T21:27:52.479Z,1
2023-04-23T21:29:53.330Z,1
2023-04-23T21:31:52.578Z,1
2023-04-23T21:33:52.918Z,1
2023-04-23T21:35:53.811Z,1
2023-04-23T21:37:52.446Z,1
2023-04-23T21:39:52.505Z,1
2023-04-23T21:41:53.780Z,1
2023-04-23T21:43:52.484Z,1
2023-04-23T21:45:52.203Z,1
2023-04-23T21:47:53.433Z,1
2023-04-23T21:49:52.369Z,1
2023-04-23T21:51:52.552Z,1
2023-04-23T21:53:57.840Z,1
2023-04-23T21:55:52.572Z,1
2023-04-23T21:57:52.758Z,1
2023-04-23T21:59:56.043Z,1
2023-04-23T22:01:52.625Z,1
2023-04-23T22:03:52.451Z,1
2023-04-23T22:05:55.587Z,1
2023-04-23T22:07:54.274Z,1
2023-04-23T22:09:52.463Z,1
2023-04-23T22:12:01.816Z,1
2023-04-23T22:13:52.484Z,1
2023-04-23T22:15:52.122Z,1
2023-04-23T22:17:53.794Z,1
2023-04-23T22:19:52.390Z,1
2023-04-23T22:21:52.651Z,1
2023-04-23T22:23:53.392Z,1
2023-04-23T22:25:52.598Z,1
2023-04-23T22:27:52.503Z,1
2023-04-23T22:29:53.433Z,1
2023-04-23T22:31:52.576Z,1
2023-04-23T22:33:52.389Z,1
2023-04-23T22:35:53.786Z,1
2023-04-23T22:37:52.408Z,1
2023-04-23T22:39:52.502Z,1
2023-04-23T22:41:53.343Z,1
2023-04-23T22:43:52.536Z,1
2023-04-23T22:45:52.712Z,1
2023-04-23T22:47:57.552Z,1
2023-04-23T22:49:52.473Z,1
2023-04-23T22:51:52.547Z,1
2023-04-23T22:53:55.058Z,1
2023-04-23T22:55:52.466Z,1
2023-04-23T22:57:52.627Z,1
2023-04-23T22:59:53.749Z,1
2023-04-23T23:01:52.531Z,1
2023-04-23T23:03:52.516Z,1
2023-04-23T23:05:56.908Z,1
2023-04-23T23:07:52.566Z,1
2023-04-23T23:09:52.481Z,1
2023-04-23T23:11:53.403Z,1
2023-04-23T23:13:52.536Z,1
2023-04-23T23:15:52.525Z,1
2023-04-23T23:17:57.057Z,1
2023-04-23T23:19:52.483Z,1
2023-04-23T23:21:52.529Z,1
2023-04-23T23:23:53.763Z,1
2023-04-23T23:25:52.531Z,1
2023-04-23T23:27:52.676Z,1
2023-04-23T23:29:53.794Z,1
2023-04-23T23:31:52.504Z,1
2023-04-23T23:33:52.393Z,1
2023-04-23T23:35:54.092Z,1
2023-04-23T23:37:52.569Z,1
2023-04-23T23:39:52.546Z,1
2023-04-23T23:41:53.761Z,1
2023-04-23T23:43:52.451Z,1
2023-04-23T23:45:52.529Z,1
2023-04-23T23:47:54.626Z,1
2023-04-23T23:49:52.493Z,1
2023-04-23T23:51:52.545Z,1
2023-04-23T23:53:55.150Z,1
2023-04-23T23:55:52.514Z,1
2023-04-23T23:57:52.237Z,1
2023-04-23T23:59:53.730Z,1
